createdAt,value
2018-08-30T00:00:36.769Z,20.72
2018-08-30T00:01:36.736Z,20.69
2018-08-30T00:02:36.739Z,20.76
2018-08-30T00:03:36.698Z,20.72
2018-08-30T00:04:36.683Z,20.76
2018-08-30T00:05:37.392Z,20.71
2018-08-30T00:06:37.158Z,20.72
2018-08-30T00:07:36.624Z,20.81
2018-08-30T00:08:37.116Z,20.81
2018-08-30T00:09:36.584Z,20.79
2018-08-30T00:10:36.557Z,20.81
2018-08-30T00:11:36.544Z,20.81
2018-08-30T00:12:36.514Z,20.76
2018-08-30T00:13:36.483Z,20.64
2018-08-30T00:14:36.468Z,20.61
2018-08-30T00:15:36.451Z,20.65
2018-08-30T00:16:36.428Z,20.81
2018-08-30T00:17:36.407Z,20.68
2018-08-30T00:18:36.385Z,20.64
2018-08-30T00:19:36.347Z,20.68
2018-08-30T00:20:36.343Z,20.69
2018-08-30T00:21:36.859Z,20.68
2018-08-30T00:22:36.301Z,20.54
2018-08-30T00:23:36.816Z,20.54
2018-08-30T00:24:36.254Z,20.51
2018-08-30T00:25:36.545Z,20.38
2018-08-30T00:26:36.222Z,20.47
2018-08-30T00:27:36.193Z,20.34
2018-08-30T00:28:36.154Z,20.34
2018-08-30T00:29:36.155Z,20.41
2018-08-30T00:30:36.126Z,20.34
2018-08-30T00:31:36.109Z,20.42
2018-08-30T00:32:36.089Z,20.39
2018-08-30T00:33:36.066Z,20.34
2018-08-30T00:34:36.032Z,20.39
2018-08-30T00:35:36.018Z,20.31
2018-08-30T00:36:35.985Z,20.41
2018-08-30T00:37:35.959Z,20.33
2018-08-30T00:38:35.957Z,20.35
2018-08-30T00:39:35.960Z,20.34
2018-08-30T00:40:35.913Z,20.42
2018-08-30T00:41:35.895Z,20.39
2018-08-30T00:42:35.870Z,20.41
2018-08-30T00:43:35.850Z,20.38
2018-08-30T00:44:35.829Z,20.41
2018-08-30T00:45:35.803Z,20.39
2018-08-30T00:46:35.786Z,20.23
2018-08-30T00:47:35.760Z,20.24
2018-08-30T00:48:35.740Z,20.16
2018-08-30T00:49:36.265Z,20.13
2018-08-30T00:50:35.700Z,20.00
2018-08-30T00:51:36.117Z,20.05
2018-08-30T00:52:35.658Z,19.98
2018-08-30T00:53:35.620Z,20.00
2018-08-30T00:54:36.158Z,20.02
2018-08-30T00:55:36.101Z,19.94
2018-08-30T00:56:35.575Z,19.98
2018-08-30T00:57:35.543Z,20.03
2018-08-30T00:58:35.523Z,20.03
2018-08-30T00:59:35.513Z,20.02
2018-08-30T01:00:35.479Z,19.90
2018-08-30T01:01:35.458Z,19.91
2018-08-30T01:02:35.437Z,19.98
2018-08-30T01:03:35.416Z,19.95
2018-08-30T01:04:35.397Z,20.00
2018-08-30T01:05:35.372Z,20.03
2018-08-30T01:06:35.357Z,20.10
2018-08-30T01:07:35.336Z,20.10
2018-08-30T01:08:35.309Z,20.18
2018-08-30T01:09:35.285Z,20.09
2018-08-30T01:10:35.271Z,20.15
2018-08-30T01:11:35.246Z,20.16
2018-08-30T01:12:35.226Z,20.12
2018-08-30T01:13:35.198Z,20.08
2018-08-30T01:14:35.184Z,20.13
2018-08-30T01:15:35.156Z,20.15
2018-08-30T01:16:35.134Z,20.10
2018-08-30T01:17:35.115Z,20.13
2018-08-30T01:18:35.097Z,20.12
2018-08-30T01:19:35.058Z,20.09
2018-08-30T01:20:35.048Z,20.06
2018-08-30T01:21:35.011Z,20.13
2018-08-30T01:22:34.988Z,20.02
2018-08-30T01:23:34.984Z,20.00
2018-08-30T01:24:34.960Z,19.83
2018-08-30T01:25:34.940Z,19.98
2018-08-30T01:26:34.921Z,20.00
2018-08-30T01:27:34.897Z,19.90
2018-08-30T01:28:34.883Z,20.02
2018-08-30T01:29:34.853Z,19.87
2018-08-30T01:30:34.831Z,19.94
2018-08-30T01:31:34.796Z,19.88
2018-08-30T01:32:34.771Z,19.90
2018-08-30T01:33:34.752Z,19.91
2018-08-30T01:34:34.732Z,19.84
2018-08-30T01:35:34.722Z,19.93
2018-08-30T01:36:34.706Z,19.91
2018-08-30T01:37:34.674Z,19.83
2018-08-30T01:38:34.657Z,19.78
2018-08-30T01:39:34.621Z,19.68
2018-08-30T01:40:34.605Z,19.65
2018-08-30T01:41:34.597Z,19.73
2018-08-30T01:42:34.560Z,19.69
2018-08-30T01:43:34.533Z,19.73
2018-08-30T01:44:34.520Z,19.65
2018-08-30T01:45:34.504Z,19.57
2018-08-30T01:46:34.484Z,19.65
2018-08-30T01:47:34.463Z,19.57
2018-08-30T01:48:34.438Z,19.55
2018-08-30T01:49:34.414Z,19.57
2018-08-30T01:50:34.396Z,19.54
2018-08-30T01:51:34.375Z,19.57
2018-08-30T01:52:34.349Z,19.47
2018-08-30T01:53:34.324Z,19.48
2018-08-30T01:54:34.305Z,19.50
2018-08-30T01:55:34.284Z,19.42
2018-08-30T01:56:34.260Z,19.36
2018-08-30T01:57:34.233Z,19.33
2018-08-30T01:58:34.214Z,19.36
2018-08-30T01:59:34.180Z,19.35
2018-08-30T02:00:34.157Z,19.47
2018-08-30T02:01:34.143Z,19.38
2018-08-30T02:02:34.130Z,19.50
2018-08-30T02:03:34.109Z,19.46
2018-08-30T02:04:34.082Z,19.43
2018-08-30T02:05:34.060Z,19.36
2018-08-30T02:06:34.041Z,19.35
2018-08-30T02:07:34.023Z,19.38
2018-08-30T02:08:33.997Z,19.28
2018-08-30T02:09:33.979Z,19.29
2018-08-30T02:10:33.955Z,19.33
2018-08-30T02:11:33.928Z,19.28
2018-08-30T02:12:33.911Z,19.25
2018-08-30T02:13:33.889Z,19.20
2018-08-30T02:14:33.865Z,19.15
2018-08-30T02:15:33.843Z,19.13
2018-08-30T02:16:33.820Z,19.10
2018-08-30T02:17:33.780Z,19.11
2018-08-30T02:18:33.780Z,19.14
2018-08-30T02:19:33.757Z,19.06
2018-08-30T02:20:33.726Z,19.06
2018-08-30T02:21:33.712Z,19.11
2018-08-30T02:22:33.688Z,19.08
2018-08-30T02:23:33.652Z,19.17
2018-08-30T02:24:33.639Z,19.17
2018-08-30T02:25:33.609Z,19.25
2018-08-30T02:26:33.583Z,19.35
2018-08-30T02:27:33.583Z,19.38
2018-08-30T02:28:33.541Z,19.25
2018-08-30T02:29:33.536Z,19.29
2018-08-30T02:30:33.516Z,19.25
2018-08-30T02:31:33.486Z,19.28
2018-08-30T02:32:33.466Z,19.14
2018-08-30T02:33:33.448Z,19.11
2018-08-30T02:34:33.422Z,19.11
2018-08-30T02:35:33.382Z,19.20
2018-08-30T02:36:33.364Z,19.17
2018-08-30T02:37:33.352Z,19.17
2018-08-30T02:38:33.334Z,19.18
2018-08-30T02:39:33.320Z,19.13
2018-08-30T02:40:33.292Z,19.17
2018-08-30T02:41:33.250Z,19.20
2018-08-30T02:42:33.241Z,19.14
2018-08-30T02:43:33.241Z,19.06
2018-08-30T02:44:33.187Z,19.01
2018-08-30T02:45:33.169Z,19.18
2018-08-30T02:46:33.140Z,19.10
2018-08-30T02:47:33.134Z,19.08
2018-08-30T02:48:33.097Z,19.13
2018-08-30T02:49:33.090Z,19.13
2018-08-30T02:50:33.070Z,19.13
2018-08-30T02:51:33.043Z,19.15
2018-08-30T02:52:33.023Z,19.10
2018-08-30T02:53:33.008Z,19.17
2018-08-30T02:54:32.978Z,19.14
2018-08-30T02:55:33.043Z,19.10
2018-08-30T02:56:32.939Z,19.06
2018-08-30T02:57:32.915Z,19.05
2018-08-30T02:58:32.889Z,18.99
2018-08-30T02:59:32.868Z,19.02
2018-08-30T03:00:32.845Z,18.95
2018-08-30T03:01:32.824Z,19.05
2018-08-30T03:02:32.787Z,19.13
2018-08-30T03:03:32.778Z,19.02
2018-08-30T03:04:32.745Z,19.02
2018-08-30T03:05:32.725Z,19.13
2018-08-30T03:06:32.699Z,19.11
2018-08-30T03:07:32.693Z,19.06
2018-08-30T03:08:32.664Z,18.97
2018-08-30T03:09:32.643Z,18.97
2018-08-30T03:10:32.625Z,18.98
2018-08-30T03:11:32.586Z,18.94
2018-08-30T03:12:32.579Z,18.91
2018-08-30T03:13:32.552Z,18.92
2018-08-30T03:14:32.538Z,18.97
2018-08-30T03:15:33.051Z,18.94
2018-08-30T03:16:32.492Z,18.97
2018-08-30T03:17:32.467Z,18.94
2018-08-30T03:18:32.449Z,19.02
2018-08-30T03:19:32.425Z,19.08
2018-08-30T03:20:32.933Z,19.06
2018-08-30T03:21:32.378Z,18.99
2018-08-30T03:22:32.357Z,19.01
2018-08-30T03:23:32.328Z,19.05
2018-08-30T03:24:32.310Z,19.11
2018-08-30T03:25:32.288Z,19.01
2018-08-30T03:26:32.268Z,19.01
2018-08-30T03:27:32.243Z,18.99
2018-08-30T03:28:32.214Z,18.98
2018-08-30T03:29:32.179Z,18.99
2018-08-30T03:30:32.183Z,18.95
2018-08-30T03:31:32.153Z,18.84
2018-08-30T03:32:32.220Z,18.84
2018-08-30T03:33:32.106Z,18.92
2018-08-30T03:34:32.090Z,18.94
2018-08-30T03:35:32.071Z,18.87
2018-08-30T03:36:32.049Z,18.79
2018-08-30T03:37:32.021Z,18.87
2018-08-30T03:38:32.004Z,18.82
2018-08-30T03:39:31.980Z,18.80
2018-08-30T03:40:31.939Z,18.90
2018-08-30T03:41:31.925Z,18.92
2018-08-30T03:42:31.909Z,18.91
2018-08-30T03:43:31.886Z,18.92
2018-08-30T03:44:31.866Z,18.92
2018-08-30T03:45:31.838Z,18.90
2018-08-30T03:46:31.818Z,18.92
2018-08-30T03:47:31.787Z,18.87
2018-08-30T03:48:31.788Z,18.79
2018-08-30T03:49:31.738Z,18.77
2018-08-30T03:50:31.763Z,18.76
2018-08-30T03:51:31.712Z,18.91
2018-08-30T03:52:31.672Z,18.83
2018-08-30T03:53:31.735Z,18.82
2018-08-30T03:54:31.642Z,18.79
2018-08-30T03:55:31.619Z,18.91
2018-08-30T03:56:31.600Z,18.94
2018-08-30T03:57:31.560Z,18.90
2018-08-30T03:58:31.551Z,18.90
2018-08-30T03:59:31.531Z,18.91
2018-08-30T04:00:31.505Z,18.87
2018-08-30T04:01:31.483Z,18.92
2018-08-30T04:02:31.466Z,18.92
2018-08-30T04:03:31.448Z,18.80
2018-08-30T04:04:31.419Z,18.82
2018-08-30T04:05:31.394Z,18.70
2018-08-30T04:06:31.357Z,18.70
2018-08-30T04:07:31.337Z,18.74
2018-08-30T04:08:31.306Z,18.68
2018-08-30T04:09:31.302Z,18.76
2018-08-30T04:10:31.270Z,18.67
2018-08-30T04:11:31.256Z,18.74
2018-08-30T04:12:31.244Z,18.68
2018-08-30T04:13:31.220Z,18.55
2018-08-30T04:14:31.196Z,18.52
2018-08-30T04:15:31.157Z,18.58
2018-08-30T04:16:31.143Z,18.49
2018-08-30T04:17:31.132Z,18.40
2018-08-30T04:18:31.102Z,18.43
2018-08-30T04:19:31.085Z,18.36
2018-08-30T04:20:31.056Z,18.37
2018-08-30T04:21:31.036Z,18.28
2018-08-30T04:22:31.012Z,18.27
2018-08-30T04:23:30.990Z,18.19
2018-08-30T04:24:30.970Z,18.22
2018-08-30T04:25:30.947Z,18.15
2018-08-30T04:26:30.920Z,18.24
2018-08-30T04:27:30.897Z,18.10
2018-08-30T04:28:30.878Z,18.07
2018-08-30T04:29:30.861Z,18.00
2018-08-30T04:30:30.832Z,17.91
2018-08-30T04:31:30.935Z,17.91
2018-08-30T04:32:30.782Z,17.89
2018-08-30T04:33:30.762Z,18.03
2018-08-30T04:34:30.737Z,18.02
2018-08-30T04:35:30.719Z,18.04
2018-08-30T04:36:30.696Z,18.06
2018-08-30T04:37:30.674Z,18.04
2018-08-30T04:38:30.647Z,18.04
2018-08-30T04:39:30.639Z,18.02
2018-08-30T04:40:30.606Z,18.06
2018-08-30T04:41:30.584Z,18.02
2018-08-30T04:42:30.653Z,18.03
2018-08-30T04:43:30.529Z,17.99
2018-08-30T04:44:30.515Z,17.89
2018-08-30T04:45:30.471Z,17.91
2018-08-30T04:46:30.471Z,17.89
2018-08-30T04:47:30.440Z,17.91
2018-08-30T04:48:30.417Z,17.95
2018-08-30T04:49:30.398Z,17.81
2018-08-30T04:50:30.396Z,17.74
2018-08-30T04:51:30.354Z,17.79
2018-08-30T04:52:30.325Z,17.67
2018-08-30T04:53:30.300Z,17.74
2018-08-30T04:54:30.281Z,17.71
2018-08-30T04:55:30.262Z,17.70
2018-08-30T04:56:30.240Z,17.73
2018-08-30T04:57:30.217Z,17.66
2018-08-30T04:58:30.179Z,17.69
2018-08-30T04:59:30.170Z,17.84
2018-08-30T05:00:30.200Z,17.91
2018-08-30T05:01:30.130Z,17.89
2018-08-30T05:02:30.102Z,17.92
2018-08-30T05:03:30.075Z,17.95
2018-08-30T05:04:30.057Z,17.92
2018-08-30T05:05:30.035Z,17.95
2018-08-30T05:06:30.013Z,17.95
2018-08-30T05:07:29.983Z,17.94
2018-08-30T05:08:29.949Z,17.85
2018-08-30T05:09:29.939Z,17.89
2018-08-30T05:10:29.921Z,17.85
2018-08-30T05:11:29.900Z,17.84
2018-08-30T05:12:29.866Z,17.82
2018-08-30T05:13:29.849Z,17.87
2018-08-30T05:14:29.807Z,17.76
2018-08-30T05:15:29.807Z,17.85
2018-08-30T05:16:29.791Z,17.81
2018-08-30T05:17:29.755Z,17.74
2018-08-30T05:18:29.735Z,17.71
2018-08-30T05:19:29.709Z,17.82
2018-08-30T05:20:29.692Z,17.82
2018-08-30T05:21:29.669Z,17.71
2018-08-30T05:22:29.644Z,17.76
2018-08-30T05:23:29.625Z,17.67
2018-08-30T05:24:29.599Z,17.64
2018-08-30T05:25:29.578Z,17.69
2018-08-30T05:26:29.550Z,17.67
2018-08-30T05:27:29.528Z,17.81
2018-08-30T05:28:29.494Z,17.71
2018-08-30T05:29:29.486Z,17.74
2018-08-30T05:30:29.456Z,17.71
2018-08-30T05:31:29.437Z,17.74
2018-08-30T05:32:29.415Z,17.70
2018-08-30T05:33:29.381Z,17.73
2018-08-30T05:34:29.366Z,17.55
2018-08-30T05:35:29.328Z,17.54
2018-08-30T05:36:29.308Z,17.48
2018-08-30T05:37:29.288Z,17.51
2018-08-30T05:38:29.268Z,17.44
2018-08-30T05:39:29.251Z,17.47
2018-08-30T05:40:29.226Z,17.47
2018-08-30T05:41:29.203Z,17.48
2018-08-30T05:42:29.185Z,17.44
2018-08-30T05:43:29.160Z,17.38
2018-08-30T05:44:29.147Z,17.44
2018-08-30T05:45:29.113Z,17.47
2018-08-30T05:46:29.090Z,17.43
2018-08-30T05:47:29.057Z,17.38
2018-08-30T05:48:29.045Z,17.41
2018-08-30T05:49:29.017Z,17.38
2018-08-30T05:50:28.984Z,17.41
2018-08-30T05:51:28.975Z,17.23
2018-08-30T05:52:28.951Z,17.38
2018-08-30T05:53:28.928Z,17.33
2018-08-30T05:54:28.911Z,17.35
2018-08-30T05:55:28.866Z,17.41
2018-08-30T05:56:28.844Z,17.25
2018-08-30T05:57:28.829Z,17.32
2018-08-30T05:58:28.806Z,17.33
2018-08-30T05:59:28.792Z,17.20
2018-08-30T06:00:28.766Z,17.15
2018-08-30T06:01:28.738Z,17.08
2018-08-30T06:02:28.714Z,17.08
2018-08-30T06:03:28.694Z,17.04
2018-08-30T06:04:28.673Z,17.04
2018-08-30T06:05:28.656Z,17.07
2018-08-30T06:06:28.627Z,16.99
2018-08-30T06:07:28.612Z,17.03
2018-08-30T06:08:28.701Z,17.06
2018-08-30T06:09:28.555Z,17.11
2018-08-30T06:10:28.532Z,17.08
2018-08-30T06:11:28.506Z,16.90
2018-08-30T06:12:28.483Z,16.95
2018-08-30T06:13:28.467Z,17.00
2018-08-30T06:14:28.439Z,16.96
2018-08-30T06:15:28.417Z,16.99
2018-08-30T06:16:28.384Z,16.99
2018-08-30T06:17:28.367Z,17.03
2018-08-30T06:18:28.330Z,16.95
2018-08-30T06:19:28.325Z,16.85
2018-08-30T06:20:28.303Z,16.90
2018-08-30T06:21:28.275Z,16.83
2018-08-30T06:22:28.251Z,16.88
2018-08-30T06:23:28.235Z,16.83
2018-08-30T06:24:28.209Z,16.95
2018-08-30T06:25:28.179Z,16.86
2018-08-30T06:26:28.164Z,16.80
2018-08-30T06:27:28.139Z,16.75
2018-08-30T06:28:28.109Z,16.74
2018-08-30T06:29:28.090Z,16.77
2018-08-30T06:30:28.216Z,16.70
2018-08-30T06:31:28.047Z,16.70
2018-08-30T06:32:28.003Z,16.68
2018-08-30T06:33:28.531Z,16.74
2018-08-30T06:34:27.970Z,16.74
2018-08-30T06:35:27.953Z,16.73
2018-08-30T06:36:27.927Z,16.71
2018-08-30T06:37:27.890Z,16.65
2018-08-30T06:38:27.875Z,16.67
2018-08-30T06:39:27.841Z,16.73
2018-08-30T06:40:27.832Z,16.63
2018-08-30T06:41:27.798Z,16.63
2018-08-30T06:42:27.773Z,16.60
2018-08-30T06:43:27.761Z,16.49
2018-08-30T06:44:27.739Z,16.49
2018-08-30T06:45:27.752Z,16.52
2018-08-30T06:46:27.689Z,16.56
2018-08-30T06:47:27.666Z,16.52
2018-08-30T06:48:27.677Z,16.53
2018-08-30T06:49:27.616Z,16.53
2018-08-30T06:50:27.596Z,16.55
2018-08-30T06:51:27.561Z,16.44
2018-08-30T06:52:27.545Z,16.41
2018-08-30T06:53:27.512Z,16.42
2018-08-30T06:54:27.491Z,16.31
2018-08-30T06:55:27.480Z,16.35
2018-08-30T06:56:27.561Z,16.33
2018-08-30T06:57:27.431Z,16.33
2018-08-30T06:58:27.440Z,16.20
2018-08-30T06:59:27.369Z,16.18
2018-08-30T07:00:27.359Z,16.22
2018-08-30T07:01:27.334Z,16.23
2018-08-30T07:02:27.312Z,16.22
2018-08-30T07:03:27.293Z,16.22
2018-08-30T07:04:27.269Z,16.26
2018-08-30T07:06:00.449Z,16.22
2018-08-30T07:06:27.225Z,16.18
2018-08-30T07:07:27.201Z,16.27
2018-08-30T07:08:27.177Z,16.23
2018-08-30T07:09:27.153Z,16.22
2018-08-30T07:10:27.124Z,16.26
2018-08-30T07:11:27.111Z,16.22
2018-08-30T07:12:27.091Z,16.23
2018-08-30T07:13:27.056Z,16.27
2018-08-30T07:14:27.083Z,16.16
2018-08-30T07:15:27.008Z,16.31
2018-08-30T07:16:26.984Z,16.33
2018-08-30T07:17:26.965Z,16.25
2018-08-30T07:18:26.935Z,16.33
2018-08-30T07:19:26.912Z,16.33
2018-08-30T07:20:26.898Z,16.33
2018-08-30T07:21:26.868Z,16.35
2018-08-30T07:22:26.849Z,16.33
2018-08-30T07:23:26.819Z,16.31
2018-08-30T07:24:26.807Z,16.38
2018-08-30T07:25:26.777Z,16.35
2018-08-30T07:26:26.751Z,16.31
2018-08-30T07:27:26.729Z,16.30
2018-08-30T07:28:26.766Z,16.25
2018-08-30T07:29:26.680Z,16.27
2018-08-30T07:30:26.662Z,16.20
2018-08-30T07:31:26.634Z,16.20
2018-08-30T07:32:26.613Z,16.18
2018-08-30T07:33:26.589Z,16.18
2018-08-30T07:34:26.742Z,16.14
2018-08-30T07:35:26.555Z,16.14
2018-08-30T07:36:26.517Z,16.12
2018-08-30T07:37:26.493Z,16.14
2018-08-30T07:38:26.473Z,16.11
2018-08-30T07:39:26.453Z,16.07
2018-08-30T07:40:26.420Z,16.04
2018-08-30T07:41:26.396Z,16.09
2018-08-30T07:42:26.381Z,16.03
2018-08-30T07:43:26.351Z,16.09
2018-08-30T07:44:26.522Z,16.03
2018-08-30T07:45:26.303Z,16.07
2018-08-30T07:46:26.284Z,16.11
2018-08-30T07:47:26.263Z,16.16
2018-08-30T07:48:26.234Z,16.16
2018-08-30T07:49:26.213Z,16.33
2018-08-30T07:50:26.191Z,16.22
2018-08-30T07:51:26.176Z,16.25
2018-08-30T07:52:26.146Z,16.25
2018-08-30T07:53:26.125Z,16.18
2018-08-30T07:54:26.101Z,16.18
2018-08-30T07:55:26.071Z,16.18
2018-08-30T07:56:26.046Z,16.06
2018-08-30T07:57:26.067Z,16.11
2018-08-30T07:58:26.004Z,16.16
2018-08-30T07:59:25.977Z,16.22
2018-08-30T08:00:25.959Z,16.22
2018-08-30T08:01:25.931Z,16.15
2018-08-30T08:02:25.912Z,16.18
2018-08-30T08:03:25.871Z,16.23
2018-08-30T08:04:25.850Z,16.14
2018-08-30T08:05:25.841Z,16.18
2018-08-30T08:06:25.822Z,16.31
2018-08-30T08:07:25.791Z,16.23
2018-08-30T08:08:25.756Z,16.18
2018-08-30T08:09:25.741Z,16.22
2018-08-30T08:10:25.725Z,16.18
2018-08-30T08:11:25.681Z,16.22
2018-08-30T08:12:25.678Z,16.16
2018-08-30T08:13:25.654Z,16.14
2018-08-30T08:14:25.639Z,16.15
2018-08-30T08:15:25.607Z,16.15
2018-08-30T08:16:25.587Z,16.16
2018-08-30T08:17:25.563Z,16.20
2018-08-30T08:18:25.530Z,16.20
2018-08-30T08:19:25.505Z,16.22
2018-08-30T08:20:25.488Z,16.30
2018-08-30T08:21:25.465Z,16.16
2018-08-30T08:22:25.438Z,16.16
2018-08-30T08:23:25.888Z,16.20
2018-08-30T08:24:25.877Z,16.18
2018-08-30T08:25:25.485Z,16.07
2018-08-30T08:26:25.349Z,16.20
2018-08-30T08:27:25.331Z,16.15
2018-08-30T08:28:26.108Z,16.06
2018-08-30T08:29:26.281Z,16.12
2018-08-30T08:30:25.248Z,16.11
2018-08-30T08:31:25.228Z,16.06
2018-08-30T08:33:25.991Z,16.09
2018-08-30T08:34:25.670Z,16.20
2018-08-30T08:35:25.219Z,16.12
2018-08-30T08:36:26.052Z,16.11
2018-08-30T08:37:25.638Z,16.11
2018-08-30T08:38:26.064Z,16.07
2018-08-30T08:39:25.785Z,16.09
2018-08-30T08:40:25.558Z,16.12
2018-08-30T08:41:25.475Z,16.16
2018-08-30T08:43:25.424Z,16.12
2018-08-30T08:44:25.410Z,16.06
2018-08-30T08:45:24.883Z,16.04
2018-08-30T08:46:25.666Z,15.99
2018-08-30T08:47:25.666Z,16.03
2018-08-30T08:48:25.342Z,15.99
2018-08-30T08:49:25.372Z,16.01
2018-08-30T08:50:25.261Z,15.97
2018-08-30T08:51:25.224Z,15.99
2018-08-30T08:52:25.217Z,15.99
2018-08-30T08:53:24.891Z,15.99
2018-08-30T08:54:25.546Z,16.01
2018-08-30T08:55:25.142Z,16.03
2018-08-30T08:56:25.336Z,16.03
2018-08-30T08:57:25.304Z,16.00
2018-08-30T08:58:25.075Z,15.96
2018-08-30T08:59:25.034Z,15.96
2018-08-30T09:00:25.080Z,15.88
2018-08-30T09:01:25.097Z,15.93
2018-08-30T09:02:24.977Z,15.92
2018-08-30T09:03:24.657Z,15.96
2018-08-30T09:04:24.919Z,15.99
2018-08-30T09:05:24.899Z,16.00
2018-08-30T09:06:24.889Z,15.99
2018-08-30T09:07:25.271Z,15.99
2018-08-30T09:08:24.836Z,15.99
2018-08-30T09:09:24.753Z,15.97
2018-08-30T09:10:25.289Z,15.97
2018-08-30T09:11:24.741Z,15.93
2018-08-30T09:12:25.073Z,15.93
2018-08-30T09:13:24.247Z,15.85
2018-08-30T09:14:24.326Z,15.86
2018-08-30T09:15:24.181Z,15.96
2018-08-30T09:16:24.141Z,15.94
2018-08-30T09:17:24.132Z,15.96
2018-08-30T09:18:24.176Z,15.93
2018-08-30T09:19:24.074Z,15.89
2018-08-30T09:20:24.056Z,15.86
2018-08-30T09:21:24.043Z,15.86
2018-08-30T09:22:24.017Z,15.89
2018-08-30T09:23:23.996Z,15.84
2018-08-30T09:24:23.970Z,15.86
2018-08-30T09:25:23.941Z,15.93
2018-08-30T09:26:23.919Z,15.92
2018-08-30T09:27:23.900Z,15.94
2018-08-30T09:28:23.882Z,15.99
2018-08-30T09:29:23.850Z,16.03
2018-08-30T09:30:23.815Z,16.09
2018-08-30T09:31:23.789Z,16.14
2018-08-30T09:32:23.775Z,16.25
2018-08-30T09:33:23.734Z,16.16
2018-08-30T09:34:23.723Z,16.35
2018-08-30T09:35:23.712Z,16.52
2018-08-30T09:36:23.681Z,16.67
2018-08-30T09:37:23.657Z,16.88
2018-08-30T09:38:23.620Z,17.06
2018-08-30T09:39:23.611Z,17.17
2018-08-30T09:40:24.027Z,17.26
2018-08-30T09:41:24.094Z,17.35
2018-08-30T09:42:23.540Z,17.64
2018-08-30T09:43:23.516Z,17.74
2018-08-30T09:44:23.490Z,17.84
2018-08-30T09:45:23.462Z,18.02
2018-08-30T09:46:23.433Z,18.29
2018-08-30T09:47:23.424Z,18.52
2018-08-30T09:48:23.400Z,18.73
2018-08-30T09:49:24.014Z,18.90
2018-08-30T09:50:24.095Z,18.95
2018-08-30T09:51:23.332Z,19.20
2018-08-30T09:52:23.321Z,19.32
2018-08-30T09:53:23.299Z,19.43
2018-08-30T09:54:23.262Z,19.65
2018-08-30T09:55:23.230Z,19.65
2018-08-30T09:56:23.221Z,19.86
2018-08-30T09:57:23.340Z,19.98
2018-08-30T09:58:23.173Z,20.00
2018-08-30T09:59:24.074Z,20.16
2018-08-30T10:00:23.942Z,20.25
2018-08-30T10:01:23.092Z,20.46
2018-08-30T10:02:23.087Z,20.69
2018-08-30T10:03:23.065Z,20.86
2018-08-30T10:04:23.043Z,21.05
2018-08-30T10:05:23.023Z,21.20
2018-08-30T10:06:23.009Z,21.36
2018-08-30T10:07:22.983Z,21.64
2018-08-30T10:08:23.406Z,21.79
2018-08-30T10:09:22.937Z,22.02
2018-08-30T10:10:22.914Z,22.10
2018-08-30T10:11:22.897Z,22.17
2018-08-30T10:12:22.925Z,22.34
2018-08-30T10:13:22.903Z,22.47
2018-08-30T10:14:22.892Z,22.29
2018-08-30T10:15:22.848Z,22.17
2018-08-30T10:16:22.789Z,22.31
2018-08-30T10:17:22.774Z,22.46
2018-08-30T10:18:22.755Z,22.50
2018-08-30T10:19:22.733Z,22.67
2018-08-30T10:20:22.697Z,22.83
2018-08-30T10:21:22.726Z,23.04
2018-08-30T10:22:22.669Z,23.12
2018-08-30T10:23:22.645Z,23.12
2018-08-30T10:24:22.626Z,23.11
2018-08-30T10:25:22.724Z,23.27
2018-08-30T10:26:22.589Z,23.43
2018-08-30T10:27:22.572Z,23.42
2018-08-30T10:28:22.577Z,23.68
2018-08-30T10:29:22.514Z,23.90
2018-08-30T10:30:22.511Z,24.00
2018-08-30T10:31:22.537Z,24.14
2018-08-30T10:32:22.477Z,24.39
2018-08-30T10:33:22.452Z,24.52
2018-08-30T10:34:22.430Z,24.41
2018-08-30T10:35:22.421Z,24.19
2018-08-30T10:36:22.385Z,23.67
2018-08-30T10:37:22.367Z,23.09
2018-08-30T10:38:22.344Z,22.87
2018-08-30T10:39:22.336Z,23.14
2018-08-30T10:40:22.326Z,23.39
2018-08-30T10:41:22.306Z,23.43
2018-08-30T10:42:22.290Z,23.15
2018-08-30T10:43:22.265Z,22.84
2018-08-30T10:44:22.240Z,22.52
2018-08-30T10:45:22.218Z,22.83
2018-08-30T10:46:22.215Z,22.77
2018-08-30T10:47:22.196Z,22.54
2018-08-30T10:48:22.177Z,21.99
2018-08-30T10:49:22.182Z,21.95
2018-08-30T10:50:22.146Z,21.83
2018-08-30T10:51:22.128Z,21.45
2018-08-30T10:52:22.105Z,21.16
2018-08-30T10:53:22.085Z,21.16
2018-08-30T10:54:22.067Z,21.01
2018-08-30T10:55:22.050Z,21.05
2018-08-30T10:56:22.103Z,20.98
2018-08-30T10:57:22.016Z,21.17
2018-08-30T10:58:22.032Z,21.42
2018-08-30T10:59:21.977Z,21.56
2018-08-30T11:00:21.960Z,21.63
2018-08-30T11:01:21.942Z,21.79
2018-08-30T11:02:21.916Z,21.50
2018-08-30T11:03:21.903Z,21.44
2018-08-30T11:04:21.948Z,21.41
2018-08-30T11:05:21.867Z,21.48
2018-08-30T11:06:21.852Z,21.79
2018-08-30T11:07:21.828Z,21.90
2018-08-30T11:08:21.809Z,21.57
2018-08-30T11:09:21.794Z,21.61
2018-08-30T11:10:21.772Z,21.92
2018-08-30T11:11:21.752Z,22.02
2018-08-30T11:12:21.734Z,22.04
2018-08-30T11:13:21.755Z,22.02
2018-08-30T11:14:21.708Z,22.31
2018-08-30T11:15:21.679Z,22.80
2018-08-30T11:16:21.812Z,23.22
2018-08-30T11:17:21.643Z,23.55
2018-08-30T11:18:22.341Z,23.17
2018-08-30T11:19:22.568Z,22.90
2018-08-30T11:20:22.532Z,22.82
2018-08-30T11:21:22.108Z,22.75
2018-08-30T11:22:22.498Z,22.68
2018-08-30T11:23:22.086Z,22.84
2018-08-30T11:24:21.520Z,22.75
2018-08-30T11:25:21.502Z,22.69
2018-08-30T11:26:21.469Z,22.74
2018-08-30T11:27:21.468Z,22.68
2018-08-30T11:28:21.439Z,22.67
2018-08-30T11:29:21.432Z,22.65
2018-08-30T11:30:21.419Z,22.39
2018-08-30T11:31:21.398Z,22.44
2018-08-30T11:32:21.472Z,22.50
2018-08-30T11:33:21.367Z,22.29
2018-08-30T11:34:21.345Z,22.28
2018-08-30T11:35:21.334Z,22.38
2018-08-30T11:36:21.310Z,22.57
2018-08-30T11:37:21.290Z,22.72
2018-08-30T11:38:21.265Z,22.68
2018-08-30T11:39:21.249Z,22.71
2018-08-30T11:40:21.230Z,22.82
2018-08-30T11:41:21.371Z,22.89
2018-08-30T11:42:21.237Z,22.90
2018-08-30T11:43:21.272Z,22.89
2018-08-30T11:44:21.170Z,23.27
2018-08-30T11:45:21.155Z,23.55
2018-08-30T11:46:21.115Z,23.57
2018-08-30T11:47:21.122Z,23.65
2018-08-30T11:48:21.100Z,23.11
2018-08-30T11:49:21.072Z,22.69
2018-08-30T11:50:21.070Z,22.49
2018-08-30T11:51:21.048Z,22.67
2018-08-30T11:52:21.121Z,22.35
2018-08-30T11:53:21.553Z,22.65
2018-08-30T11:54:21.996Z,22.75
2018-08-30T11:55:22.143Z,22.74
2018-08-30T11:56:21.546Z,23.09
2018-08-30T11:58:21.479Z,23.17
2018-08-30T11:59:21.452Z,23.52
2018-08-30T12:00:21.848Z,23.42
2018-08-30T12:01:21.420Z,23.15
2018-08-30T12:03:21.392Z,23.09
2018-08-30T12:04:21.394Z,23.38
2018-08-30T12:05:21.249Z,23.35
2018-08-30T12:06:21.321Z,23.39
2018-08-30T12:07:21.508Z,23.77
2018-08-30T12:09:21.688Z,23.92
2018-08-30T12:12:21.453Z,23.79
2018-08-30T12:13:21.744Z,23.38
2018-08-30T12:14:21.206Z,23.01
2018-08-30T12:15:21.497Z,22.75
2018-08-30T12:16:21.171Z,23.04
2018-08-30T12:17:21.133Z,23.11
2018-08-30T12:18:21.739Z,23.17
2018-08-30T12:19:21.127Z,23.14
2018-08-30T12:20:21.112Z,23.24
2018-08-30T12:21:21.093Z,23.53
2018-08-30T12:23:21.659Z,23.55
2018-08-30T12:25:21.424Z,24.16
2018-08-30T12:26:21.022Z,24.13
2018-08-30T12:27:21.291Z,24.04
2018-08-30T12:29:20.943Z,24.04
2018-08-30T12:31:20.987Z,24.07
2018-08-30T12:32:20.892Z,24.12
2018-08-30T12:33:20.920Z,24.19
2018-08-30T12:35:21.188Z,24.37
2018-08-30T12:36:20.895Z,24.29
2018-08-30T12:37:20.874Z,24.14
2018-08-30T12:38:20.769Z,24.20
2018-08-30T12:40:20.390Z,24.37
2018-08-30T12:41:20.238Z,24.49
2018-08-30T12:42:20.983Z,24.39
2018-08-30T12:43:20.815Z,24.31
2018-08-30T12:44:20.768Z,24.12
2018-08-30T12:45:20.708Z,23.97
2018-08-30T12:46:21.102Z,23.87
2018-08-30T12:47:20.660Z,23.87
2018-08-30T12:49:20.712Z,24.20
2018-08-30T12:50:20.833Z,24.38
2018-08-30T12:51:20.661Z,24.57
2018-08-30T12:52:20.644Z,24.73
2018-08-30T12:53:20.699Z,24.76
2018-08-30T12:54:21.246Z,24.71
2018-08-30T12:55:20.674Z,24.41
2018-08-30T12:56:21.047Z,24.31
2018-08-30T12:57:21.223Z,24.42
2018-08-30T12:58:20.751Z,24.39
2018-08-30T12:59:20.622Z,24.34
2018-08-30T13:01:20.573Z,24.26
2018-08-30T13:02:20.112Z,24.17
2018-08-30T13:03:20.589Z,24.34
2018-08-30T13:04:20.577Z,24.45
2018-08-30T13:05:20.946Z,24.59
2018-08-30T13:06:20.234Z,24.67
2018-08-30T13:07:20.992Z,24.90